sensor_id;sensor_type;location;lat;lon;timestamp;temperature;humidity
79010;DHT22;73031;44.726;37.760;2023-09-30T00:00:23;22.57;41.57
79010;DHT22;73031;44.726;37.760;2023-09-30T00:01:25;22.56;41.55
79010;DHT22;73031;44.726;37.760;2023-09-30T00:02:26;22.56;41.72
79010;DHT22;73031;44.726;37.760;2023-09-30T00:03:28;22.53;41.64
79010;DHT22;73031;44.726;37.760;2023-09-30T00:04:29;22.51;42.06
79010;DHT22;73031;44.726;37.760;2023-09-30T00:05:31;22.53;42.14
79010;DHT22;73031;44.726;37.760;2023-09-30T00:06:32;22.49;41.56
79010;DHT22;73031;44.726;37.760;2023-09-30T00:07:34;22.47;41.32
79010;DHT22;73031;44.726;37.760;2023-09-30T00:08:35;22.43;40.90
79010;DHT22;73031;44.726;37.760;2023-09-30T00:09:37;22.39;41.23
79010;DHT22;73031;44.726;37.760;2023-09-30T00:10:38;22.40;41.81
79010;DHT22;73031;44.726;37.760;2023-09-30T00:11:39;22.43;41.84
79010;DHT22;73031;44.726;37.760;2023-09-30T00:12:40;22.41;42.12
79010;DHT22;73031;44.726;37.760;2023-09-30T00:13:42;22.40;41.43
79010;DHT22;73031;44.726;37.760;2023-09-30T00:14:43;22.41;41.27
79010;DHT22;73031;44.726;37.760;2023-09-30T00:15:44;22.37;41.82
79010;DHT22;73031;44.726;37.760;2023-09-30T00:16:45;22.40;41.95
79010;DHT22;73031;44.726;37.760;2023-09-30T00:17:47;22.41;41.88
79010;DHT22;73031;44.726;37.760;2023-09-30T00:18:48;22.41;41.83
79010;DHT22;73031;44.726;37.760;2023-09-30T00:19:49;22.41;41.59
79010;DHT22;73031;44.726;37.760;2023-09-30T00:20:50;22.39;42.23
79010;DHT22;73031;44.726;37.760;2023-09-30T00:21:52;22.40;41.16
79010;DHT22;73031;44.726;37.760;2023-09-30T00:22:53;22.32;41.23
79010;DHT22;73031;44.726;37.760;2023-09-30T00:23:54;22.33;41.49
79010;DHT22;73031;44.726;37.760;2023-09-30T00:24:56;22.35;41.99
79010;DHT22;73031;44.726;37.760;2023-09-30T00:25:57;22.35;42.08
79010;DHT22;73031;44.726;37.760;2023-09-30T00:26:58;22.32;41.63
79010;DHT22;73031;44.726;37.760;2023-09-30T00:28:00;22.35;41.81
79010;DHT22;73031;44.726;37.760;2023-09-30T00:29:01;22.33;42.07
79010;DHT22;73031;44.726;37.760;2023-09-30T00:30:06;22.37;41.50
79010;DHT22;73031;44.726;37.760;2023-09-30T00:31:07;22.30;41.03
79010;DHT22;73031;44.726;37.760;2023-09-30T00:32:11;22.29;42.17
79010;DHT22;73031;44.726;37.760;2023-09-30T00:33:13;22.32;41.54
79010;DHT22;73031;44.726;37.760;2023-09-30T00:34:14;22.32;41.70
79010;DHT22;73031;44.726;37.760;2023-09-30T00:35:16;22.32;41.84
79010;DHT22;73031;44.726;37.760;2023-09-30T00:36:17;22.33;41.62
79010;DHT22;73031;44.726;37.760;2023-09-30T00:37:18;22.32;41.51
79010;DHT22;73031;44.726;37.760;2023-09-30T00:38:19;22.30;41.66
79010;DHT22;73031;44.726;37.760;2023-09-30T00:39:20;22.29;41.88
79010;DHT22;73031;44.726;37.760;2023-09-30T00:40:22;22.29;41.24
79010;DHT22;73031;44.726;37.760;2023-09-30T00:41:23;22.24;41.30
79010;DHT22;73031;44.726;37.760;2023-09-30T00:42:24;22.23;41.06
79010;DHT22;73031;44.726;37.760;2023-09-30T00:43:26;22.23;41.74
79010;DHT22;73031;44.726;37.760;2023-09-30T00:44:27;22.24;41.12
79010;DHT22;73031;44.726;37.760;2023-09-30T00:45:29;22.26;41.05
79010;DHT22;73031;44.726;37.760;2023-09-30T00:46:32;22.22;41.58
79010;DHT22;73031;44.726;37.760;2023-09-30T00:47:34;22.20;41.52
79010;DHT22;73031;44.726;37.760;2023-09-30T00:48:37;22.14;41.46
79010;DHT22;73031;44.726;37.760;2023-09-30T00:49:38;22.14;41.85
79010;DHT22;73031;44.726;37.760;2023-09-30T00:50:40;22.14;41.59
79010;DHT22;73031;44.726;37.760;2023-09-30T00:51:41;22.10;41.90
79010;DHT22;73031;44.726;37.760;2023-09-30T00:52:43;22.12;41.47
79010;DHT22;73031;44.726;37.760;2023-09-30T00:53:46;22.08;40.99
79010;DHT22;73031;44.726;37.760;2023-09-30T00:54:48;22.02;41.16
79010;DHT22;73031;44.726;37.760;2023-09-30T00:55:50;22.01;41.83
79010;DHT22;73031;44.726;37.760;2023-09-30T00:56:53;21.98;41.48
79010;DHT22;73031;44.726;37.760;2023-09-30T00:57:56;21.96;41.22
79010;DHT22;73031;44.726;37.760;2023-09-30T00:58:58;21.91;41.69
79010;DHT22;73031;44.726;37.760;2023-09-30T01:00:00;21.85;41.31
79010;DHT22;73031;44.726;37.760;2023-09-30T01:01:02;21.84;41.56
79010;DHT22;73031;44.726;37.760;2023-09-30T01:02:03;21.77;41.97
79010;DHT22;73031;44.726;37.760;2023-09-30T01:03:07;21.79;41.89
79010;DHT22;73031;44.726;37.760;2023-09-30T01:04:08;21.81;41.89
79010;DHT22;73031;44.726;37.760;2023-09-30T01:05:10;21.81;41.61
79010;DHT22;73031;44.726;37.760;2023-09-30T01:06:11;21.81;41.77
79010;DHT22;73031;44.726;37.760;2023-09-30T01:07:12;21.77;41.63
79010;DHT22;73031;44.726;37.760;2023-09-30T01:08:13;21.73;41.76
79010;DHT22;73031;44.726;37.760;2023-09-30T01:09:14;21.73;41.85
79010;DHT22;73031;44.726;37.760;2023-09-30T01:10:15;21.68;41.75
79010;DHT22;73031;44.726;37.760;2023-09-30T01:11:16;21.65;41.75
79010;DHT22;73031;44.726;37.760;2023-09-30T01:12:18;21.64;41.70
79010;DHT22;73031;44.726;37.760;2023-09-30T01:13:19;21.62;41.62
79010;DHT22;73031;44.726;37.760;2023-09-30T01:15:30;21.51;41.73
79010;DHT22;73031;44.726;37.760;2023-09-30T01:16:32;21.49;41.91
79010;DHT22;73031;44.726;37.760;2023-09-30T01:17:33;21.50;41.87
79010;DHT22;73031;44.726;37.760;2023-09-30T01:18:34;21.51;42.05
79010;DHT22;73031;44.726;37.760;2023-09-30T01:19:35;21.50;42.05
79010;DHT22;73031;44.726;37.760;2023-09-30T01:20:36;21.51;42.08
79010;DHT22;73031;44.726;37.760;2023-09-30T01:21:37;21.49;42.00
79010;DHT22;73031;44.726;37.760;2023-09-30T01:22:38;21.53;41.71
79010;DHT22;73031;44.726;37.760;2023-09-30T01:23:40;21.50;42.00
79010;DHT22;73031;44.726;37.760;2023-09-30T01:24:42;21.51;42.08
79010;DHT22;73031;44.726;37.760;2023-09-30T01:25:43;21.53;41.70
79010;DHT22;73031;44.726;37.760;2023-09-30T01:26:44;21.50;42.10
79010;DHT22;73031;44.726;37.760;2023-09-30T01:27:45;21.50;42.21
79010;DHT22;73031;44.726;37.760;2023-09-30T01:28:46;21.50;41.99
79010;DHT22;73031;44.726;37.760;2023-09-30T01:29:49;21.47;41.91
79010;DHT22;73031;44.726;37.760;2023-09-30T01:30:51;21.47;42.10
79010;DHT22;73031;44.726;37.760;2023-09-30T01:31:52;21.47;41.66
79010;DHT22;73031;44.726;37.760;2023-09-30T01:32:54;21.46;42.05
79010;DHT22;73031;44.726;37.760;2023-09-30T01:33:55;21.46;41.90
79010;DHT22;73031;44.726;37.760;2023-09-30T01:34:56;21.43;41.91
79010;DHT22;73031;44.726;37.760;2023-09-30T01:35:58;21.37;41.83
79010;DHT22;73031;44.726;37.760;2023-09-30T01:37:00;21.33;41.90
79010;DHT22;73031;44.726;37.760;2023-09-30T01:38:01;21.30;42.01
79010;DHT22;73031;44.726;37.760;2023-09-30T01:39:02;21.30;42.08
79010;DHT22;73031;44.726;37.760;2023-09-30T01:40:04;21.29;42.25
79010;DHT22;73031;44.726;37.760;2023-09-30T01:41:05;21.32;42.22
79010;DHT22;73031;44.726;37.760;2023-09-30T01:42:06;21.34;42.25
79010;DHT22;73031;44.726;37.760;2023-09-30T01:43:07;21.33;42.24
79010;DHT22;73031;44.726;37.760;2023-09-30T01:44:08;21.37;42.41
79010;DHT22;73031;44.726;37.760;2023-09-30T01:45:10;21.37;42.24
79010;DHT22;73031;44.726;37.760;2023-09-30T01:46:11;21.36;41.85
79010;DHT22;73031;44.726;37.760;2023-09-30T01:47:12;21.37;42.04
79010;DHT22;73031;44.726;37.760;2023-09-30T01:48:13;21.40;42.43
79010;DHT22;73031;44.726;37.760;2023-09-30T01:49:14;21.43;41.85
79010;DHT22;73031;44.726;37.760;2023-09-30T01:50:15;21.41;42.00
79010;DHT22;73031;44.726;37.760;2023-09-30T01:51:18;21.43;41.99
79010;DHT22;73031;44.726;37.760;2023-09-30T01:52:19;21.40;41.94
79010;DHT22;73031;44.726;37.760;2023-09-30T01:53:20;21.39;42.00
79010;DHT22;73031;44.726;37.760;2023-09-30T01:54:21;21.40;42.03
79010;DHT22;73031;44.726;37.760;2023-09-30T01:55:22;21.39;41.67
79010;DHT22;73031;44.726;37.760;2023-09-30T01:56:23;21.33;42.16
79010;DHT22;73031;44.726;37.760;2023-09-30T01:57:24;21.32;41.98
79010;DHT22;73031;44.726;37.760;2023-09-30T01:58:25;21.29;42.23
79010;DHT22;73031;44.726;37.760;2023-09-30T01:59:26;21.27;41.84
79010;DHT22;73031;44.726;37.760;2023-09-30T02:00:28;21.23;42.23
79010;DHT22;73031;44.726;37.760;2023-09-30T02:01:29;21.27;42.45
79010;DHT22;73031;44.726;37.760;2023-09-30T02:02:31;21.27;42.22
79010;DHT22;73031;44.726;37.760;2023-09-30T02:03:32;21.23;42.29
79010;DHT22;73031;44.726;37.760;2023-09-30T02:04:33;21.23;42.25
79010;DHT22;73031;44.726;37.760;2023-09-30T02:05:34;21.22;42.21
79010;DHT22;73031;44.726;37.760;2023-09-30T02:06:35;21.16;42.27
79010;DHT22;73031;44.726;37.760;2023-09-30T02:07:36;21.13;42.51
79010;DHT22;73031;44.726;37.760;2023-09-30T02:08:37;21.07;42.71
79010;DHT22;73031;44.726;37.760;2023-09-30T02:09:38;21.09;42.78
79010;DHT22;73031;44.726;37.760;2023-09-30T02:10:39;21.10;42.90
79010;DHT22;73031;44.726;37.760;2023-09-30T02:11:41;21.12;42.99
79010;DHT22;73031;44.726;37.760;2023-09-30T02:12:42;21.13;43.11
79010;DHT22;73031;44.726;37.760;2023-09-30T02:13:43;21.16;42.68
79010;DHT22;73031;44.726;37.760;2023-09-30T02:14:45;21.13;42.86
79010;DHT22;73031;44.726;37.760;2023-09-30T02:15:47;21.14;42.90
79010;DHT22;73031;44.726;37.760;2023-09-30T02:16:48;21.14;42.96
79010;DHT22;73031;44.726;37.760;2023-09-30T02:17:49;21.12;42.75
79010;DHT22;73031;44.726;37.760;2023-09-30T02:18:50;21.12;43.00
79010;DHT22;73031;44.726;37.760;2023-09-30T02:19:51;21.09;43.17
79010;DHT22;73031;44.726;37.760;2023-09-30T02:20:54;21.14;42.98
79010;DHT22;73031;44.726;37.760;2023-09-30T02:21:55;21.09;42.88
79010;DHT22;73031;44.726;37.760;2023-09-30T02:22:59;21.07;43.58
79010;DHT22;73031;44.726;37.760;2023-09-30T02:24:00;21.12;43.53
79010;DHT22;73031;44.726;37.760;2023-09-30T02:25:01;21.10;43.22
79010;DHT22;73031;44.726;37.760;2023-09-30T02:26:02;21.10;43.10
79010;DHT22;73031;44.726;37.760;2023-09-30T02:27:03;21.13;43.33
79010;DHT22;73031;44.726;37.760;2023-09-30T02:28:06;21.10;43.12
79010;DHT22;73031;44.726;37.760;2023-09-30T02:29:07;21.09;43.02
79010;DHT22;73031;44.726;37.760;2023-09-30T02:30:11;21.00;43.20
79010;DHT22;73031;44.726;37.760;2023-09-30T02:31:16;21.03;43.30
79010;DHT22;73031;44.726;37.760;2023-09-30T02:32:18;21.03;43.50
79010;DHT22;73031;44.726;37.760;2023-09-30T02:33:19;21.07;43.76
79010;DHT22;73031;44.726;37.760;2023-09-30T02:34:20;21.06;43.40
79010;DHT22;73031;44.726;37.760;2023-09-30T02:35:21;21.07;43.91
79010;DHT22;73031;44.726;37.760;2023-09-30T02:36:22;21.13;44.10
79010;DHT22;73031;44.726;37.760;2023-09-30T02:37:23;21.12;44.05
79010;DHT22;73031;44.726;37.760;2023-09-30T02:38:24;21.09;43.49
79010;DHT22;73031;44.726;37.760;2023-09-30T02:39:25;21.10;43.46
79010;DHT22;73031;44.726;37.760;2023-09-30T02:40:27;21.07;43.69
79010;DHT22;73031;44.726;37.760;2023-09-30T02:41:28;21.12;43.76
79010;DHT22;73031;44.726;37.760;2023-09-30T02:42:30;21.13;43.84
79010;DHT22;73031;44.726;37.760;2023-09-30T02:43:31;21.12;44.03
79010;DHT22;73031;44.726;37.760;2023-09-30T02:44:32;21.13;44.22
79010;DHT22;73031;44.726;37.760;2023-09-30T02:45:33;21.12;43.96
79010;DHT22;73031;44.726;37.760;2023-09-30T02:46:34;21.10;44.20
79010;DHT22;73031;44.726;37.760;2023-09-30T02:47:35;21.13;44.28
79010;DHT22;73031;44.726;37.760;2023-09-30T02:48:36;21.13;44.35
79010;DHT22;73031;44.726;37.760;2023-09-30T02:49:37;21.16;44.41
79010;DHT22;73031;44.726;37.760;2023-09-30T02:50:42;21.14;44.19
79010;DHT22;73031;44.726;37.760;2023-09-30T02:51:45;21.16;44.09
79010;DHT22;73031;44.726;37.760;2023-09-30T02:52:46;21.13;44.30
79010;DHT22;73031;44.726;37.760;2023-09-30T02:53:47;21.14;43.99
79010;DHT22;73031;44.726;37.760;2023-09-30T02:54:49;21.10;44.14
79010;DHT22;73031;44.726;37.760;2023-09-30T02:55:50;21.09;44.43
79010;DHT22;73031;44.726;37.760;2023-09-30T02:56:56;21.09;44.09
79010;DHT22;73031;44.726;37.760;2023-09-30T02:57:58;21.05;44.24
79010;DHT22;73031;44.726;37.760;2023-09-30T02:59:00;21.09;44.68
79010;DHT22;73031;44.726;37.760;2023-09-30T03:00:03;21.09;44.33
79010;DHT22;73031;44.726;37.760;2023-09-30T03:01:21;21.05;44.23
79010;DHT22;73031;44.726;37.760;2023-09-30T03:02:22;21.00;44.23
79010;DHT22;73031;44.726;37.760;2023-09-30T03:03:24;20.99;44.42
79010;DHT22;73031;44.726;37.760;2023-09-30T03:04:26;20.96;44.51
79010;DHT22;73031;44.726;37.760;2023-09-30T03:05:30;20.99;44.66
79010;DHT22;73031;44.726;37.760;2023-09-30T03:06:34;20.99;44.68
79010;DHT22;73031;44.726;37.760;2023-09-30T03:07:39;20.99;44.49
79010;DHT22;73031;44.726;37.760;2023-09-30T03:08:42;20.99;44.75
79010;DHT22;73031;44.726;37.760;2023-09-30T03:09:44;20.99;44.54
79010;DHT22;73031;44.726;37.760;2023-09-30T03:10:45;20.96;44.43
79010;DHT22;73031;44.726;37.760;2023-09-30T03:11:47;20.96;44.61
79010;DHT22;73031;44.726;37.760;2023-09-30T03:12:48;20.96;44.83
79010;DHT22;73031;44.726;37.760;2023-09-30T03:13:49;21.00;44.79
79010;DHT22;73031;44.726;37.760;2023-09-30T03:14:51;21.02;44.86
79010;DHT22;73031;44.726;37.760;2023-09-30T03:15:53;21.00;44.91
79010;DHT22;73031;44.726;37.760;2023-09-30T03:16:54;21.05;45.05
79010;DHT22;73031;44.726;37.760;2023-09-30T03:17:55;21.03;45.19
79010;DHT22;73031;44.726;37.760;2023-09-30T03:18:56;21.06;45.03
79010;DHT22;73031;44.726;37.760;2023-09-30T03:19:58;21.06;44.59
79010;DHT22;73031;44.726;37.760;2023-09-30T03:21:01;21.05;44.51
79010;DHT22;73031;44.726;37.760;2023-09-30T03:22:02;20.99;44.62
79010;DHT22;73031;44.726;37.760;2023-09-30T03:23:05;20.99;44.60
79010;DHT22;73031;44.726;37.760;2023-09-30T03:24:07;20.96;44.88
79010;DHT22;73031;44.726;37.760;2023-09-30T03:25:12;21.02;44.51
79010;DHT22;73031;44.726;37.760;2023-09-30T03:26:13;20.98;44.61
79010;DHT22;73031;44.726;37.760;2023-09-30T03:27:14;20.99;44.88
79010;DHT22;73031;44.726;37.760;2023-09-30T03:28:16;21.02;45.33
79010;DHT22;73031;44.726;37.760;2023-09-30T03:29:18;21.05;45.16
79010;DHT22;73031;44.726;37.760;2023-09-30T03:30:19;21.03;44.71
79010;DHT22;73031;44.726;37.760;2023-09-30T03:31:21;21.05;44.36
79010;DHT22;73031;44.726;37.760;2023-09-30T03:32:23;21.00;44.65
79010;DHT22;73031;44.726;37.760;2023-09-30T03:33:25;20.99;44.41
79010;DHT22;73031;44.726;37.760;2023-09-30T03:34:27;20.96;44.73
79010;DHT22;73031;44.726;37.760;2023-09-30T03:35:29;20.96;45.02
79010;DHT22;73031;44.726;37.760;2023-09-30T03:36:31;21.02;45.03
79010;DHT22;73031;44.726;37.760;2023-09-30T03:37:32;21.02;45.03
79010;DHT22;73031;44.726;37.760;2023-09-30T03:38:34;21.02;44.91
79010;DHT22;73031;44.726;37.760;2023-09-30T03:39:35;21.03;45.06
79010;DHT22;73031;44.726;37.760;2023-09-30T03:40:36;21.05;45.15
79010;DHT22;73031;44.726;37.760;2023-09-30T03:41:39;21.06;44.97
79010;DHT22;73031;44.726;37.760;2023-09-30T03:42:41;21.03;45.31
79010;DHT22;73031;44.726;37.760;2023-09-30T03:43:45;21.07;45.48
79010;DHT22;73031;44.726;37.760;2023-09-30T03:44:46;21.13;45.68
79010;DHT22;73031;44.726;37.760;2023-09-30T03:45:49;21.18;45.60
79010;DHT22;73031;44.726;37.760;2023-09-30T03:46:51;21.19;45.39
79010;DHT22;73031;44.726;37.760;2023-09-30T03:47:53;21.19;44.91
79010;DHT22;73031;44.726;37.760;2023-09-30T03:48:54;21.20;44.53
79010;DHT22;73031;44.726;37.760;2023-09-30T03:49:56;21.22;45.17
79010;DHT22;73031;44.726;37.760;2023-09-30T03:51:13;21.22;44.81
79010;DHT22;73031;44.726;37.760;2023-09-30T03:52:15;21.27;44.96
79010;DHT22;73031;44.726;37.760;2023-09-30T03:53:16;21.27;45.92
79010;DHT22;73031;44.726;37.760;2023-09-30T03:54:17;21.34;46.08
79010;DHT22;73031;44.726;37.760;2023-09-30T03:55:19;21.43;46.90
79010;DHT22;73031;44.726;37.760;2023-09-30T03:56:21;21.43;45.55
79010;DHT22;73031;44.726;37.760;2023-09-30T03:57:23;21.49;45.89
79010;DHT22;73031;44.726;37.760;2023-09-30T03:58:24;21.54;45.87
79010;DHT22;73031;44.726;37.760;2023-09-30T03:59:26;21.55;45.63
79010;DHT22;73031;44.726;37.760;2023-09-30T04:00:28;21.60;45.16
79010;DHT22;73031;44.726;37.760;2023-09-30T04:01:30;21.62;45.17
79010;DHT22;73031;44.726;37.760;2023-09-30T04:02:32;21.65;44.29
79010;DHT22;73031;44.726;37.760;2023-09-30T04:03:34;21.65;44.72
79010;DHT22;73031;44.726;37.760;2023-09-30T04:04:40;21.73;44.51
79010;DHT22;73031;44.726;37.760;2023-09-30T04:05:41;21.77;44.07
79010;DHT22;73031;44.726;37.760;2023-09-30T04:06:42;21.81;44.30
79010;DHT22;73031;44.726;37.760;2023-09-30T04:07:44;21.86;44.39
79010;DHT22;73031;44.726;37.760;2023-09-30T04:08:45;21.95;43.35
79010;DHT22;73031;44.726;37.760;2023-09-30T04:09:47;21.94;43.95
79010;DHT22;73031;44.726;37.760;2023-09-30T04:10:49;21.99;43.85
79010;DHT22;73031;44.726;37.760;2023-09-30T04:11:50;22.08;43.63
79010;DHT22;73031;44.726;37.760;2023-09-30T04:12:52;22.13;43.66
79010;DHT22;73031;44.726;37.760;2023-09-30T04:13:53;22.16;43.75
79010;DHT22;73031;44.726;37.760;2023-09-30T04:14:54;22.23;43.74
79010;DHT22;73031;44.726;37.760;2023-09-30T04:15:56;22.32;43.52
79010;DHT22;73031;44.726;37.760;2023-09-30T04:16:59;22.41;43.32
79010;DHT22;73031;44.726;37.760;2023-09-30T04:18:00;22.49;43.38
79010;DHT22;73031;44.726;37.760;2023-09-30T04:19:01;22.56;43.21
79010;DHT22;73031;44.726;37.760;2023-09-30T04:20:03;22.57;43.09
79010;DHT22;73031;44.726;37.760;2023-09-30T04:21:06;22.63;42.81
79010;DHT22;73031;44.726;37.760;2023-09-30T04:22:08;22.65;42.60
79010;DHT22;73031;44.726;37.760;2023-09-30T04:23:09;22.72;42.79
79010;DHT22;73031;44.726;37.760;2023-09-30T04:24:11;22.77;42.76
79010;DHT22;73031;44.726;37.760;2023-09-30T04:25:12;22.84;41.68
79010;DHT22;73031;44.726;37.760;2023-09-30T04:26:17;22.88;42.18
79010;DHT22;73031;44.726;37.760;2023-09-30T04:27:18;22.99;42.17
79010;DHT22;73031;44.726;37.760;2023-09-30T04:28:19;23.09;42.17
79010;DHT22;73031;44.726;37.760;2023-09-30T04:29:21;23.19;41.89
79010;DHT22;73031;44.726;37.760;2023-09-30T04:30:24;23.29;41.93
79010;DHT22;73031;44.726;37.760;2023-09-30T04:31:28;23.42;41.47
79010;DHT22;73031;44.726;37.760;2023-09-30T04:32:29;23.65;40.85
79010;DHT22;73031;44.726;37.760;2023-09-30T04:33:30;23.75;40.77
79010;DHT22;73031;44.726;37.760;2023-09-30T04:34:32;23.82;40.26
79010;DHT22;73031;44.726;37.760;2023-09-30T04:35:33;24.08;40.32
79010;DHT22;73031;44.726;37.760;2023-09-30T04:36:36;24.28;39.58
79010;DHT22;73031;44.726;37.760;2023-09-30T04:37:37;24.23;39.77
79010;DHT22;73031;44.726;37.760;2023-09-30T04:38:39;24.30;39.94
79010;DHT22;73031;44.726;37.760;2023-09-30T04:39:40;24.43;39.62
79010;DHT22;73031;44.726;37.760;2023-09-30T04:40:41;24.49;39.75
79010;DHT22;73031;44.726;37.760;2023-09-30T04:41:45;24.78;38.94
79010;DHT22;73031;44.726;37.760;2023-09-30T04:42:48;25.11;38.24
79010;DHT22;73031;44.726;37.760;2023-09-30T04:43:49;25.43;37.74
79010;DHT22;73031;44.726;37.760;2023-09-30T04:44:51;25.67;37.18
79010;DHT22;73031;44.726;37.760;2023-09-30T04:45:52;25.77;37.18
79010;DHT22;73031;44.726;37.760;2023-09-30T04:46:57;25.87;37.10
79010;DHT22;73031;44.726;37.760;2023-09-30T04:47:58;25.94;36.99
79010;DHT22;73031;44.726;37.760;2023-09-30T04:49:00;25.95;36.80
79010;DHT22;73031;44.726;37.760;2023-09-30T04:50:07;25.99;36.90
79010;DHT22;73031;44.726;37.760;2023-09-30T04:51:09;26.04;36.74
79010;DHT22;73031;44.726;37.760;2023-09-30T04:52:11;26.14;36.68
79010;DHT22;73031;44.726;37.760;2023-09-30T04:53:13;26.37;36.47
79010;DHT22;73031;44.726;37.760;2023-09-30T04:54:14;26.59;36.33
79010;DHT22;73031;44.726;37.760;2023-09-30T04:55:15;26.79;35.98
79010;DHT22;73031;44.726;37.760;2023-09-30T04:56:17;26.97;35.48
79010;DHT22;73031;44.726;37.760;2023-09-30T04:57:18;27.18;35.09
79010;DHT22;73031;44.726;37.760;2023-09-30T04:58:20;27.41;34.62
79010;DHT22;73031;44.726;37.760;2023-09-30T04:59:21;27.46;34.50
79010;DHT22;73031;44.726;37.760;2023-09-30T05:00:26;27.45;34.61
79010;DHT22;73031;44.726;37.760;2023-09-30T05:01:28;27.56;34.88
79010;DHT22;73031;44.726;37.760;2023-09-30T05:02:30;27.70;34.52
79010;DHT22;73031;44.726;37.760;2023-09-30T05:03:31;27.97;33.42
79010;DHT22;73031;44.726;37.760;2023-09-30T05:04:32;28.29;32.92
79010;DHT22;73031;44.726;37.760;2023-09-30T05:05:33;28.59;32.53
79010;DHT22;73031;44.726;37.760;2023-09-30T05:06:36;28.76;32.28
79010;DHT22;73031;44.726;37.760;2023-09-30T05:07:37;28.87;32.38
79010;DHT22;73031;44.726;37.760;2023-09-30T05:08:38;28.94;32.32
79010;DHT22;73031;44.726;37.760;2023-09-30T05:09:39;29.18;32.22
79010;DHT22;73031;44.726;37.760;2023-09-30T05:10:42;29.39;31.64
79010;DHT22;73031;44.726;37.760;2023-09-30T05:11:43;29.53;31.86
79010;DHT22;73031;44.726;37.760;2023-09-30T05:12:45;29.58;31.52
79010;DHT22;73031;44.726;37.760;2023-09-30T05:13:46;29.49;31.82
79010;DHT22;73031;44.726;37.760;2023-09-30T05:14:48;29.55;31.07
79010;DHT22;73031;44.726;37.760;2023-09-30T05:15:49;29.43;31.69
79010;DHT22;73031;44.726;37.760;2023-09-30T05:16:52;29.42;31.83
79010;DHT22;73031;44.726;37.760;2023-09-30T05:17:54;29.52;31.47
79010;DHT22;73031;44.726;37.760;2023-09-30T05:18:55;29.72;30.32
79010;DHT22;73031;44.726;37.760;2023-09-30T05:19:57;29.83;30.83
79010;DHT22;73031;44.726;37.760;2023-09-30T05:20:58;30.07;30.74
79010;DHT22;73031;44.726;37.760;2023-09-30T05:21:59;30.28;30.52
79010;DHT22;73031;44.726;37.760;2023-09-30T05:23:02;30.45;30.06
79010;DHT22;73031;44.726;37.760;2023-09-30T05:24:04;30.53;29.87
79010;DHT22;73031;44.726;37.760;2023-09-30T05:25:07;30.60;29.64
79010;DHT22;73031;44.726;37.760;2023-09-30T05:26:08;30.58;29.62
79010;DHT22;73031;44.726;37.760;2023-09-30T05:27:09;30.69;29.24
79010;DHT22;73031;44.726;37.760;2023-09-30T05:28:11;30.76;29.58
79010;DHT22;73031;44.726;37.760;2023-09-30T05:29:12;30.88;29.77
79010;DHT22;73031;44.726;37.760;2023-09-30T05:30:13;31.10;29.63
79010;DHT22;73031;44.726;37.760;2023-09-30T05:31:16;31.07;30.41
79010;DHT22;73031;44.726;37.760;2023-09-30T05:32:18;31.06;29.63
79010;DHT22;73031;44.726;37.760;2023-09-30T05:33:19;31.07;30.07
79010;DHT22;73031;44.726;37.760;2023-09-30T05:34:20;31.07;30.30
79010;DHT22;73031;44.726;37.760;2023-09-30T05:35:22;31.07;29.88
79010;DHT22;73031;44.726;37.760;2023-09-30T05:36:25;31.07;29.80
79010;DHT22;73031;44.726;37.760;2023-09-30T05:37:26;31.24;29.44
79010;DHT22;73031;44.726;37.760;2023-09-30T05:38:27;31.55;28.91
79010;DHT22;73031;44.726;37.760;2023-09-30T05:39:28;31.77;28.18
79010;DHT22;73031;44.726;37.760;2023-09-30T05:40:30;31.94;28.34
79010;DHT22;73031;44.726;37.760;2023-09-30T05:41:31;32.18;27.98
79010;DHT22;73031;44.726;37.760;2023-09-30T05:42:33;32.35;27.85
79010;DHT22;73031;44.726;37.760;2023-09-30T05:43:36;32.44;27.70
79010;DHT22;73031;44.726;37.760;2023-09-30T05:44:38;32.59;27.05
79010;DHT22;73031;44.726;37.760;2023-09-30T05:45:39;32.71;26.97
79010;DHT22;73031;44.726;37.760;2023-09-30T05:46:49;32.76;26.68
79010;DHT22;73031;44.726;37.760;2023-09-30T05:47:52;32.82;26.84
79010;DHT22;73031;44.726;37.760;2023-09-30T05:48:58;32.99;26.58
79010;DHT22;73031;44.726;37.760;2023-09-30T05:49:59;32.92;26.59
79010;DHT22;73031;44.726;37.760;2023-09-30T05:51:01;33.04;26.68
79010;DHT22;73031;44.726;37.760;2023-09-30T05:52:02;33.11;26.63
79010;DHT22;73031;44.726;37.760;2023-09-30T05:53:04;33.28;26.51
79010;DHT22;73031;44.726;37.760;2023-09-30T05:54:08;33.41;26.31
79010;DHT22;73031;44.726;37.760;2023-09-30T05:55:12;33.43;26.24
79010;DHT22;73031;44.726;37.760;2023-09-30T05:56:16;33.43;26.22
79010;DHT22;73031;44.726;37.760;2023-09-30T05:57:17;33.44;26.05
79010;DHT22;73031;44.726;37.760;2023-09-30T05:58:18;33.57;26.04
79010;DHT22;73031;44.726;37.760;2023-09-30T05:59:19;33.55;26.22
79010;DHT22;73031;44.726;37.760;2023-09-30T06:00:21;33.65;26.10
79010;DHT22;73031;44.726;37.760;2023-09-30T06:01:31;33.79;25.89
79010;DHT22;73031;44.726;37.760;2023-09-30T06:02:36;33.90;25.78
79010;DHT22;73031;44.726;37.760;2023-09-30T06:03:37;33.95;25.75
79010;DHT22;73031;44.726;37.760;2023-09-30T06:04:40;33.96;25.54
79010;DHT22;73031;44.726;37.760;2023-09-30T06:05:41;34.00;25.41
79010;DHT22;73031;44.726;37.760;2023-09-30T06:06:42;34.19;25.57
79010;DHT22;73031;44.726;37.760;2023-09-30T06:07:44;34.37;25.45
79010;DHT22;73031;44.726;37.760;2023-09-30T06:08:45;34.54;25.38
79010;DHT22;73031;44.726;37.760;2023-09-30T06:09:47;34.64;25.28
79010;DHT22;73031;44.726;37.760;2023-09-30T06:10:50;34.64;25.01
79010;DHT22;73031;44.726;37.760;2023-09-30T06:11:51;34.67;25.13
79010;DHT22;73031;44.726;37.760;2023-09-30T06:12:53;34.62;24.82
79010;DHT22;73031;44.726;37.760;2023-09-30T06:13:58;34.52;24.84
79010;DHT22;73031;44.726;37.760;2023-09-30T06:15:02;34.57;25.18
79010;DHT22;73031;44.726;37.760;2023-09-30T06:16:03;34.75;25.29
79010;DHT22;73031;44.726;37.760;2023-09-30T06:17:04;34.98;25.02
79010;DHT22;73031;44.726;37.760;2023-09-30T06:18:06;35.07;24.85
79010;DHT22;73031;44.726;37.760;2023-09-30T06:19:07;35.06;25.47
79010;DHT22;73031;44.726;37.760;2023-09-30T06:20:10;35.12;24.91
79010;DHT22;73031;44.726;37.760;2023-09-30T06:21:16;35.10;25.63
79010;DHT22;73031;44.726;37.760;2023-09-30T06:22:21;35.20;25.38
79010;DHT22;73031;44.726;37.760;2023-09-30T06:23:22;35.33;25.17
79010;DHT22;73031;44.726;37.760;2023-09-30T06:24:24;35.48;25.18
79010;DHT22;73031;44.726;37.760;2023-09-30T06:25:25;35.54;24.71